createdAt,value
2019-02-14T00:00:21.830Z,20.10
2019-02-14T00:02:50.763Z,20.63
2019-02-14T00:05:19.789Z,21.43
2019-02-14T00:07:48.757Z,20.77
2019-02-14T00:10:17.615Z,21.23
2019-02-14T00:12:46.503Z,20.03
2019-02-14T00:15:15.438Z,21.03
2019-02-14T00:17:44.397Z,21.57
2019-02-14T00:20:13.331Z,21.50
2019-02-14T00:22:42.341Z,21.87
2019-02-14T00:25:11.613Z,22.57
2019-02-14T00:27:40.543Z,23.60
2019-02-14T00:30:09.820Z,23.73
2019-02-14T00:32:38.736Z,22.17
2019-02-14T00:35:07.646Z,22.37
2019-02-14T00:42:56.178Z,23.20
2019-02-14T00:45:25.654Z,22.43
2019-02-14T00:47:54.913Z,21.43
2019-02-14T00:50:24.433Z,23.67
2019-02-14T00:52:53.853Z,22.73
2019-02-14T00:55:23.389Z,21.50
2019-02-14T00:57:52.861Z,22.37
2019-02-14T01:00:22.185Z,21.80
2019-02-14T01:02:51.573Z,22.27
2019-02-14T01:05:20.966Z,21.70
2019-02-14T01:07:50.423Z,21.80
2019-02-14T01:10:20.113Z,21.30
2019-02-14T01:12:49.587Z,21.07
2019-02-14T01:15:22.639Z,20.17
2019-02-14T01:17:52.045Z,20.93
2019-02-14T01:20:21.490Z,21.03
2019-02-14T01:22:59.274Z,20.83
2019-02-14T01:25:31.155Z,20.27
2019-02-14T01:28:00.613Z,20.73
2019-02-14T01:30:30.156Z,21.73
2019-02-14T01:32:59.499Z,20.37
2019-02-14T01:35:32.011Z,20.43
2019-02-14T01:38:01.378Z,20.67
2019-02-14T01:40:30.670Z,21.07
2019-02-14T01:43:00.179Z,21.03
2019-02-14T01:45:29.797Z,20.30
2019-02-14T01:47:59.145Z,20.60
2019-02-14T01:50:28.480Z,20.43
2019-02-14T01:56:38.012Z,19.63
2019-02-14T02:17:32.057Z,21.13
2019-02-14T02:25:19.648Z,21.23
2019-02-14T02:27:49.811Z,21.43
2019-02-14T02:30:18.956Z,20.40
2019-02-14T02:32:47.815Z,20.53
2019-02-14T02:35:16.810Z,19.70
2019-02-14T02:37:45.783Z,21.07
2019-02-14T02:40:14.696Z,20.73
2019-02-14T02:42:43.588Z,21.07
2019-02-14T02:45:13.020Z,21.20
2019-02-14T02:47:41.967Z,20.83
2019-02-14T02:50:12.880Z,20.70
2019-02-14T02:52:41.778Z,22.33
2019-02-14T02:55:10.806Z,23.60
2019-02-14T02:57:40.438Z,23.97
2019-02-14T03:00:13.055Z,23.77
2019-02-14T03:02:41.990Z,23.53
2019-02-14T03:05:12.043Z,23.57
2019-02-14T03:07:40.964Z,24.43
2019-02-14T03:10:10.658Z,24.30
2019-02-14T03:12:40.361Z,24.07
2019-02-14T03:15:10.682Z,22.33
2019-02-14T03:17:40.039Z,23.77
2019-02-14T03:20:10.832Z,21.33
2019-02-14T03:27:52.990Z,24.43
2019-02-14T03:30:22.352Z,23.70
2019-02-14T03:32:53.283Z,24.10
2019-02-14T03:35:22.912Z,25.37
2019-02-14T03:37:52.272Z,25.13
2019-02-14T03:40:21.632Z,23.80
2019-02-14T03:42:51.104Z,22.63
2019-02-14T03:45:20.569Z,24.53
2019-02-14T03:47:49.720Z,22.87
2019-02-14T03:53:01.609Z,23.43
2019-02-14T03:55:30.631Z,23.80
2019-02-14T03:57:59.668Z,22.00
2019-02-14T04:00:28.703Z,24.07
2019-02-14T04:02:57.608Z,22.40
2019-02-14T04:05:26.563Z,22.50
2019-02-14T04:07:55.446Z,22.20
2019-02-14T04:10:24.471Z,21.50
2019-02-14T04:12:53.330Z,21.87
2019-02-14T04:15:22.224Z,20.27
2019-02-14T04:17:51.186Z,21.83
2019-02-14T04:20:20.162Z,22.40
2019-02-14T04:22:49.014Z,22.40
2019-02-14T04:25:17.918Z,22.63
2019-02-14T04:27:46.810Z,23.33
2019-02-14T04:30:15.829Z,22.43
2019-02-14T04:32:44.694Z,23.03
2019-02-14T04:35:13.622Z,23.43
2019-02-14T04:45:43.498Z,22.47
2019-02-14T04:48:12.682Z,23.37
2019-02-14T04:50:41.686Z,23.37
2019-02-14T04:53:10.682Z,22.47
2019-02-14T05:03:39.380Z,21.70
2019-02-14T05:06:47.932Z,20.50
2019-02-14T05:09:16.997Z,21.73
2019-02-14T05:11:47.446Z,20.33
2019-02-14T05:14:16.716Z,20.13
2019-02-14T05:16:45.827Z,20.53
2019-02-14T05:19:14.986Z,20.97
2019-02-14T05:21:44.025Z,20.57
2019-02-14T05:24:13.305Z,19.70
2019-02-14T05:26:43.291Z,19.87
2019-02-14T05:37:13.367Z,21.07
2019-02-14T05:39:42.541Z,21.37
2019-02-14T05:45:41.135Z,21.87
2019-02-14T05:48:11.762Z,21.00
2019-02-14T05:50:45.174Z,20.87
2019-02-14T05:53:16.260Z,20.80
2019-02-14T05:55:47.051Z,20.33
2019-02-14T06:04:34.883Z,20.53
2019-02-14T06:07:04.343Z,20.73
2019-02-14T06:09:35.639Z,19.50
2019-02-14T06:18:03.779Z,18.00
2019-02-14T06:20:33.653Z,18.20
2019-02-14T06:39:40.499Z,18.13
2019-02-14T06:47:34.816Z,19.17
2019-02-14T07:03:23.526Z,19.10
2019-02-14T07:05:52.451Z,19.67
2019-02-14T07:08:21.336Z,19.07
2019-02-14T07:10:50.171Z,18.97
2019-02-14T07:13:19.083Z,18.77
2019-02-14T07:15:47.922Z,18.97
2019-02-14T07:18:16.867Z,18.40
2019-02-14T07:20:45.727Z,18.53
2019-02-14T07:23:14.610Z,18.67
2019-02-14T07:25:43.600Z,17.77
2019-02-14T07:28:12.454Z,18.87
2019-02-14T07:30:41.295Z,19.20
2019-02-14T07:33:10.309Z,17.90
2019-02-14T07:35:39.156Z,18.87
2019-02-14T07:38:08.083Z,18.00
2019-02-14T07:40:36.971Z,18.43
2019-02-14T07:43:05.912Z,17.23
2019-02-14T07:45:34.846Z,18.07
2019-02-14T07:48:03.870Z,17.77
2019-02-14T07:53:08.639Z,17.70
2019-02-14T07:55:37.673Z,17.63
2019-02-14T07:58:06.636Z,16.70
2019-02-14T08:00:35.701Z,17.77
2019-02-14T08:03:04.643Z,17.60
2019-02-14T08:05:33.516Z,17.20
2019-02-14T08:08:02.704Z,17.03
2019-02-14T08:10:31.726Z,17.73
2019-02-14T08:43:29.219Z,13.67
2019-02-14T08:59:27.246Z,11.50
2019-02-14T09:38:26.340Z,11.77
2019-02-14T09:52:08.935Z,10.80
2019-02-14T09:55:09.303Z,10.93
2019-02-14T10:09:24.232Z,10.60
2019-02-14T10:14:32.635Z,11.27
2019-02-14T10:17:01.484Z,10.53
2019-02-14T10:19:30.503Z,10.20
2019-02-14T10:21:59.529Z,10.70
2019-02-14T10:24:28.452Z,10.20
2019-02-14T10:26:57.386Z,10.00
2019-02-14T10:29:26.285Z,10.70
2019-02-14T10:31:55.155Z,10.30
2019-02-14T10:34:24.052Z,10.50
2019-02-14T10:36:52.955Z,10.93
2019-02-14T10:39:21.976Z,10.80
2019-02-14T10:41:50.983Z,10.60
2019-02-14T10:44:19.918Z,10.17
2019-02-14T10:46:48.985Z,10.23
2019-02-14T10:49:17.887Z,10.00
2019-02-14T10:51:46.878Z,10.13
2019-02-14T10:54:15.875Z,9.90
2019-02-14T10:56:44.861Z,9.70
2019-02-14T10:59:13.810Z,9.63
2019-02-14T11:01:42.839Z,10.40
2019-02-14T11:04:11.859Z,10.47
2019-02-14T11:06:40.786Z,9.53
2019-02-14T11:09:09.812Z,9.47
2019-02-14T11:11:38.704Z,9.60
2019-02-14T11:14:07.680Z,8.73
2019-02-14T11:16:36.708Z,9.70
2019-02-14T11:19:05.823Z,8.60
2019-02-14T11:21:53.887Z,8.60
2019-02-14T11:24:23.354Z,8.33
2019-02-14T11:26:52.264Z,7.87
2019-02-14T11:29:21.139Z,7.60
2019-02-14T11:31:50.081Z,7.67
2019-02-14T11:34:19.036Z,7.53
2019-02-14T11:36:47.939Z,7.30
2019-02-14T11:39:16.949Z,7.50
2019-02-14T11:41:45.858Z,7.87
2019-02-14T11:44:14.734Z,7.03
2019-02-14T11:46:51.318Z,8.23
2019-02-14T11:49:14.570Z,8.60
2019-02-14T11:51:43.582Z,7.67
2019-02-14T11:54:12.547Z,6.80
2019-02-14T11:56:41.451Z,7.10
2019-02-14T11:59:10.339Z,7.10
2019-02-14T12:01:39.276Z,6.77
2019-02-14T12:04:08.273Z,6.83
2019-02-14T12:06:37.216Z,6.87
2019-02-14T12:09:06.653Z,6.90
2019-02-14T12:11:35.539Z,7.07
2019-02-14T12:14:04.516Z,7.13
2019-02-14T12:16:33.353Z,7.93
2019-02-14T12:19:02.335Z,7.90
2019-02-14T12:21:31.197Z,7.57
2019-02-14T12:24:00.133Z,7.13
2019-02-14T12:26:29.006Z,6.03
2019-02-14T12:28:57.843Z,6.03
2019-02-14T12:31:26.927Z,6.10
2019-02-14T12:33:55.907Z,6.23
2019-02-14T12:36:24.752Z,6.67
2019-02-14T12:38:53.719Z,6.50
2019-02-14T12:41:22.735Z,6.40
2019-02-14T12:43:51.622Z,6.77
2019-02-14T12:46:20.553Z,6.30
2019-02-14T12:48:49.432Z,6.00
2019-02-14T12:51:18.368Z,5.50
2019-02-14T12:53:47.248Z,5.77
2019-02-14T12:56:16.209Z,5.67
2019-02-14T12:58:45.017Z,5.47
2019-02-14T13:01:13.963Z,4.90
2019-02-14T13:03:42.810Z,5.50
2019-02-14T13:06:11.764Z,5.03
2019-02-14T13:08:40.575Z,5.13
2019-02-14T13:11:09.418Z,5.13
2019-02-14T13:13:38.251Z,4.60
2019-02-14T13:16:07.153Z,4.47
2019-02-14T13:18:36.088Z,4.40
2019-02-14T13:21:05.064Z,4.13
2019-02-14T13:23:33.903Z,4.50
2019-02-14T13:26:02.874Z,4.30
2019-02-14T13:28:31.692Z,3.90
2019-02-14T13:31:00.607Z,3.80
2019-02-14T13:33:29.449Z,3.40
2019-02-14T13:35:58.290Z,3.00
2019-02-14T13:38:27.114Z,3.27
2019-02-14T13:40:55.990Z,3.00
2019-02-14T13:43:24.816Z,2.90
2019-02-14T13:45:53.650Z,2.67
2019-02-14T13:48:22.493Z,3.03
2019-02-14T13:50:52.070Z,3.03
2019-02-14T13:53:21.071Z,3.10
2019-02-14T13:55:49.974Z,3.10
2019-02-14T13:58:18.956Z,3.30
2019-02-14T14:00:47.879Z,3.23
2019-02-14T14:03:16.815Z,3.33
2019-02-14T14:05:45.733Z,3.27
2019-02-14T14:08:14.596Z,3.37
2019-02-14T14:10:43.517Z,3.70
2019-02-14T14:13:12.443Z,3.97
2019-02-14T14:15:41.334Z,3.53
2019-02-14T14:18:10.186Z,3.93
2019-02-14T14:20:39.024Z,3.60
2019-02-14T14:23:07.988Z,4.17
2019-02-14T14:25:36.907Z,4.23
2019-02-14T14:28:05.842Z,4.20
2019-02-14T14:30:34.746Z,4.43
2019-02-14T14:33:03.690Z,4.17
2019-02-14T14:35:32.545Z,4.07
2019-02-14T14:38:01.412Z,4.10
2019-02-14T14:40:30.303Z,4.27
2019-02-14T14:43:18.249Z,4.27
2019-02-14T14:45:58.082Z,4.73
2019-02-14T14:48:30.080Z,4.20
2019-02-14T14:50:58.898Z,4.57
2019-02-14T14:53:27.760Z,4.97
2019-02-14T14:55:56.593Z,4.20
2019-02-14T14:58:25.442Z,4.60
2019-02-14T15:00:54.335Z,4.47
2019-02-14T15:03:23.204Z,4.47
2019-02-14T15:05:52.163Z,4.53
2019-02-14T15:08:21.058Z,4.63
2019-02-14T15:10:49.871Z,4.70
2019-02-14T15:13:18.699Z,4.33
2019-02-14T15:15:47.535Z,4.40
2019-02-14T15:18:16.335Z,4.60
2019-02-14T15:20:45.312Z,5.00
2019-02-14T15:23:14.145Z,3.93
2019-02-14T15:25:43.011Z,3.90
2019-02-14T15:28:11.899Z,3.83
2019-02-14T15:30:40.765Z,3.77
2019-02-14T15:33:09.629Z,3.43
2019-02-14T15:35:38.567Z,3.40
2019-02-14T15:38:09.545Z,3.70
2019-02-14T15:40:38.033Z,3.60
2019-02-14T15:43:07.009Z,3.73
2019-02-14T15:45:35.855Z,3.40
2019-02-14T15:48:04.759Z,3.93
2019-02-14T15:50:33.588Z,3.80
2019-02-14T15:53:02.426Z,5.13
2019-02-14T15:55:31.279Z,5.10
2019-02-14T15:58:00.109Z,4.00
2019-02-14T16:00:30.670Z,3.80
2019-02-14T16:02:59.555Z,3.80
2019-02-14T16:05:28.459Z,3.63
2019-02-14T16:07:57.263Z,3.47
2019-02-14T16:10:27.758Z,4.50
2019-02-14T16:12:56.728Z,4.40
2019-02-14T16:15:25.546Z,4.33
2019-02-14T16:17:54.370Z,4.50
2019-02-14T16:20:23.211Z,3.70
2019-02-14T16:22:52.042Z,3.40
2019-02-14T16:25:22.514Z,3.90
2019-02-14T16:27:53.079Z,3.30
2019-02-14T16:30:21.948Z,3.53
2019-02-14T16:32:50.743Z,3.80
2019-02-14T16:35:19.660Z,3.83
2019-02-14T16:37:50.446Z,3.77
2019-02-14T16:40:27.471Z,3.70
2019-02-14T16:42:49.995Z,3.47
2019-02-14T16:45:18.831Z,3.80
2019-02-14T16:47:47.717Z,3.70
2019-02-14T16:50:16.623Z,3.90
2019-02-14T16:52:45.447Z,3.60
2019-02-14T16:55:14.282Z,3.83
2019-02-14T16:57:43.099Z,4.27
2019-02-14T17:00:12.398Z,4.10
2019-02-14T17:02:41.303Z,4.30
2019-02-14T17:07:58.319Z,4.33
2019-02-14T17:10:36.291Z,3.87
2019-02-14T17:13:17.082Z,4.37
2019-02-14T17:15:45.927Z,3.97
2019-02-14T17:18:14.742Z,4.20
2019-02-14T17:20:43.649Z,4.10
2019-02-14T17:23:12.453Z,4.37
2019-02-14T17:25:41.279Z,4.20
2019-02-14T17:28:10.100Z,4.57
2019-02-14T17:30:38.983Z,4.60
2019-02-14T17:33:07.786Z,4.87
2019-02-14T17:35:36.595Z,4.57
2019-02-14T17:38:05.574Z,4.83
2019-02-14T17:40:34.400Z,4.83
2019-02-14T17:43:03.238Z,4.60
2019-02-14T17:45:32.027Z,4.70
2019-02-14T17:48:00.862Z,4.80
2019-02-14T17:50:29.730Z,4.97
2019-02-14T17:52:58.550Z,4.97
2019-02-14T17:55:27.343Z,4.87
2019-02-14T17:57:56.174Z,4.80
2019-02-14T18:00:25.440Z,4.53
2019-02-14T18:02:54.819Z,4.87
2019-02-14T18:05:24.253Z,4.47
2019-02-14T18:07:53.212Z,4.70
2019-02-14T18:10:22.320Z,4.77
2019-02-14T18:12:51.288Z,5.00
2019-02-14T18:15:20.398Z,5.10
2019-02-14T18:17:49.896Z,6.30
2019-02-14T18:20:18.910Z,5.80
2019-02-14T18:22:48.085Z,6.00
2019-02-14T18:25:17.538Z,6.07
2019-02-14T18:27:46.599Z,5.60
2019-02-14T18:30:16.257Z,5.80
2019-02-14T18:32:46.884Z,6.10
2019-02-14T18:35:16.007Z,6.00
2019-02-14T18:37:44.995Z,6.07
2019-02-14T18:40:14.147Z,6.00
2019-02-14T18:42:43.192Z,5.40
2019-02-14T18:45:13.036Z,5.60
2019-02-14T18:47:42.064Z,5.10
2019-02-14T18:50:11.547Z,5.57
2019-02-14T18:52:40.639Z,5.30
2019-02-14T18:55:09.819Z,5.50
2019-02-14T18:57:38.619Z,5.70
2019-02-14T19:00:10.503Z,5.27
2019-02-14T19:02:39.437Z,5.20
2019-02-14T19:05:09.394Z,5.13
2019-02-14T19:07:38.232Z,4.80
2019-02-14T19:10:08.510Z,4.90
2019-02-14T19:12:37.371Z,5.37
2019-02-14T19:15:06.803Z,5.17
2019-02-14T19:17:35.656Z,5.60
2019-02-14T19:20:05.266Z,5.63
2019-02-14T19:22:34.160Z,6.67
2019-02-14T19:25:02.964Z,5.80
2019-02-14T19:27:31.786Z,5.20
2019-02-14T19:30:00.602Z,4.87
2019-02-14T19:32:29.441Z,4.80
2019-02-14T19:34:58.270Z,4.67
2019-02-14T19:37:27.140Z,4.20
2019-02-14T19:39:55.970Z,4.80
2019-02-14T19:42:24.868Z,5.10
2019-02-14T19:44:53.705Z,4.90
2019-02-14T19:47:22.563Z,4.87
2019-02-14T19:49:51.490Z,4.60
2019-02-14T19:52:20.355Z,4.57
2019-02-14T19:54:49.198Z,4.87
2019-02-14T19:57:18.125Z,5.10
2019-02-14T19:59:47.004Z,5.20
2019-02-14T20:02:15.830Z,5.17
2019-02-14T20:04:44.670Z,5.43
2019-02-14T20:07:13.599Z,5.10
2019-02-14T20:09:42.415Z,4.90
2019-02-14T20:12:11.327Z,5.10
2019-02-14T20:14:40.160Z,5.20
2019-02-14T20:17:09.010Z,5.27
2019-02-14T20:19:37.834Z,5.40
2019-02-14T20:22:06.778Z,5.43
2019-02-14T20:24:35.929Z,5.57
2019-02-14T20:27:04.838Z,5.27
2019-02-14T20:29:33.639Z,5.40
2019-02-14T20:32:02.479Z,5.17
2019-02-14T20:34:31.310Z,4.73
2019-02-14T20:37:00.101Z,5.13
2019-02-14T20:39:28.915Z,4.77
2019-02-14T20:41:57.784Z,4.53
2019-02-14T20:44:26.605Z,4.87
2019-02-14T20:46:55.471Z,5.00
2019-02-14T20:49:24.378Z,4.40
2019-02-14T20:51:54.119Z,4.97
2019-02-14T20:54:22.947Z,4.80
2019-02-14T20:56:51.829Z,4.50
2019-02-14T20:59:20.643Z,4.70
2019-02-14T21:01:49.535Z,4.40
2019-02-14T21:04:18.377Z,4.43
2019-02-14T21:06:47.353Z,4.40
2019-02-14T21:09:16.235Z,4.03
2019-02-14T21:11:54.242Z,4.27
2019-02-14T21:14:15.839Z,4.20
2019-02-14T21:16:44.644Z,4.53
2019-02-14T21:19:13.475Z,4.40
2019-02-14T21:21:42.365Z,4.10
2019-02-14T21:24:11.183Z,4.90
2019-02-14T21:26:40.087Z,4.60
2019-02-14T21:29:08.996Z,4.57
2019-02-14T21:31:38.130Z,4.80
2019-02-14T21:34:07.223Z,4.77
2019-02-14T21:36:36.108Z,4.80
2019-02-14T21:39:06.654Z,4.77
2019-02-14T21:41:35.534Z,4.70
2019-02-14T21:44:04.417Z,4.43
2019-02-14T21:46:33.340Z,4.93
2019-02-14T21:49:02.203Z,3.90
2019-02-14T21:51:31.010Z,4.10
2019-02-14T21:53:59.847Z,4.00
2019-02-14T21:56:28.873Z,4.93
2019-02-14T21:58:57.745Z,4.70
2019-02-14T22:01:27.632Z,4.10
2019-02-14T22:03:56.550Z,4.17
2019-02-14T22:06:25.595Z,4.53
2019-02-14T22:08:54.411Z,4.60
2019-02-14T22:11:23.330Z,4.37
2019-02-14T22:13:52.213Z,4.90
2019-02-14T22:16:21.254Z,4.73
2019-02-14T22:18:50.095Z,4.70
2019-02-14T22:21:18.924Z,4.50
2019-02-14T22:23:47.814Z,4.23
2019-02-14T22:26:16.631Z,4.67
2019-02-14T22:28:45.431Z,4.50
2019-02-14T22:31:14.236Z,4.70
2019-02-14T22:33:43.108Z,4.87
2019-02-14T22:36:12.001Z,4.00
2019-02-14T22:38:40.812Z,4.73
2019-02-14T22:41:09.620Z,4.47
2019-02-14T22:43:38.447Z,4.93
2019-02-14T22:46:07.318Z,4.67
2019-02-14T22:48:36.144Z,4.30
2019-02-14T22:51:05.023Z,4.43
2019-02-14T22:53:33.831Z,4.40
2019-02-14T22:56:02.635Z,4.37
2019-02-14T22:58:31.456Z,4.60
2019-02-14T23:01:01.118Z,4.37
2019-02-14T23:03:30.141Z,4.30
2019-02-14T23:05:59.017Z,4.43
2019-02-14T23:08:27.853Z,4.67
2019-02-14T23:10:56.732Z,4.57
2019-02-14T23:13:25.562Z,4.60
2019-02-14T23:16:13.631Z,4.67
2019-02-14T23:18:42.448Z,5.03
2019-02-14T23:21:11.251Z,4.53
2019-02-14T23:23:40.062Z,4.00
2019-02-14T23:26:08.870Z,4.90
2019-02-14T23:28:37.713Z,4.53
2019-02-14T23:31:06.622Z,4.60
2019-02-14T23:33:35.450Z,4.93
2019-02-14T23:36:04.321Z,5.43
2019-02-14T23:38:33.106Z,4.27
2019-02-14T23:41:01.907Z,5.07
2019-02-14T23:43:30.702Z,5.20
2019-02-14T23:45:59.527Z,4.63
2019-02-14T23:48:28.312Z,4.30
2019-02-14T23:50:57.202Z,4.73
2019-02-14T23:53:26.018Z,4.10
2019-02-14T23:55:54.832Z,4.37
2019-02-14T23:58:23.630Z,4.00
